Carnival Splendor — 3EUS — position and weather

sailwx.info

Track history (hours):
 
Tides and Currents Weather Stations Pressure Air Temp Water Temp Dewpoint Dewpoint Depression Visibility Wind Speed Wind Dir Waves Ship Positions

Carnival Splendor

Last reported at 2018-Sep-24 13:00 UTC. Time now 2018-Sep-24 21:35 UTC.
Position N 22°54' W 110°48'.

Length 289 m; draft 8.4 m.

Type: Passenger vessel. MMSI: 372808000.

Wind from 340 at 5 knots

Barometer 1008.0 mb
Air temperature 27.0 ° C
Visibility: greater than 10.8 NM
Dewpoint 19.4 ° C
Water temperature 28.0 ° C

Date/timePositionNaut miles runAvg speedWind from/ knotsBaromVisibWave heightAir tempDewpointWater temp
2018-Sep-24 13:00N 22°54' W 110°48'17021.3 340 / 51008.010.8 27.019.428.0
2018-Sep-24 05:00N 24°48' W 113°06'13120.4 300 / 101009.010.8 24.720.525.0
2018-Sep-23 22:33N 26°34' W 114°32'220.9
2018-Sep-23 22:29N 26°35' W 114°33'1820.5
2018-Sep-23 21:35N 26°50' W 114°46'220.8
2018-Sep-23 21:29N 26°51' W 114°47'1021.4
2018-Sep-23 21:00N 26°59' W 114°55'1821.3
2018-Sep-23 20:08N 27°14' W 115°07'221.0
2018-Sep-23 20:02N 27°16' W 115°09'121.4
2018-Sep-23 19:58N 27°17' W 115°10'1021.3
2018-Sep-23 19:30N 27°25' W 115°16'1325.9
2018-Sep-23 19:00N 27°36' W 115°24'312.8 360 / 151012.010.8 20.616.122.0
2018-Sep-23 18:48N 27°36' W 115°27'621.3
2018-Sep-23 18:30N 27°41' W 115°31'815.5
2018-Sep-23 18:00N 27°48' W 115°36'1427.0 350 / 151013.010.8 20.014.922.0
2018-Sep-23 17:28N 27°59' W 115°46'1020.7
2018-Sep-23 17:00N 28°06' W 115°54'1313.1 360 / 111013.010.8 20.016.021.0
2018-Sep-23 16:00N 28°18' W 116°00'1748.0 330 / 151012.010.8 20.016.722.0
2018-Sep-23 15:39N 28°34' W 116°05'721.6
2018-Sep-23 15:19N 28°41' W 116°08'1121.5
2018-Sep-23 14:49N 28°51' W 116°12'1721.6
2018-Sep-23 14:02N 29°07' W 116°19'5123.3
2018-Sep-23 14:00N 29°12' W 116°18'714.6 330 / 161011.010.8 19.013.828.0
2018-Sep-23 13:31N 29°17' W 116°23'1021.9
2018-Sep-23 13:04N 29°27' W 116°27'121.7
2018-Sep-23 13:00N 29°28' W 116°28'1321.6
2018-Sep-23 12:24N 29°40' W 116°33'821.5
2018-Sep-23 12:03N 29°47' W 116°36'221.4
2018-Sep-23 11:58N 29°49' W 116°36'1021.4
2018-Sep-23 11:29N 29°58' W 116°40'921.4
2018-Sep-23 11:03N 30°07' W 116°44'121.6
2018-Sep-23 11:00N 30°08' W 116°45'1121.3
2018-Sep-23 10:31N 30°18' W 116°49'1021.4
2018-Sep-23 10:03N 30°27' W 116°53'121.1
2018-Sep-23 10:01N 30°28' W 116°53'1121.1
2018-Sep-23 09:31N 30°38' W 116°57'1021.4
2018-Sep-23 09:04N 30°47' W 117°01'121.3
2018-Sep-23 09:00N 30°48' W 117°01'6374.3
2018-Sep-23 09:00N 30°42' W 117°00'1734.9 310 / 151011.010.8 17.015.318.0
2018-Sep-23 08:30N 30°58' W 117°06'1021.5
2018-Sep-23 08:04N 31°07' W 117°10'121.6
2018-Sep-23 08:00N 31°08' W 117°10'1121.5
2018-Sep-23 07:30N 31°18' W 117°14'1021.4
2018-Sep-23 07:03N 31°27' W 117°19'121.1
2018-Sep-23 07:00N 31°28' W 117°19'1121.3
2018-Sep-23 06:30N 31°38' W 117°24'1021.4
2018-Sep-23 06:04N 31°47' W 117°27'121.3
2018-Sep-23 06:00N 31°49' W 117°27'1121.3
2018-Sep-23 05:30N 31°58' W 117°31'1021.6
2018-Sep-23 05:03N 32°08' W 117°35'121.5
2018-Sep-23 05:00N 32°09' W 117°36'3157.9
2018-Sep-23 05:00N 32°06' W 117°36'1327.4 300 / 161011.010.8 18.014.620.0
2018-Sep-23 04:30N 32°19' W 117°40'1021.6
2018-Sep-23 04:03N 32°28' W 117°44'121.7
2018-Sep-23 04:00N 32°29' W 117°45'1020.7
2018-Sep-23 03:31N 32°39' W 117°48'920.4
2018-Sep-23 03:04N 32°48' W 117°51'120.4
2018-Sep-23 03:01N 32°49' W 117°51'18511120.5
2018-Sep-23 03:00N 35°54' W 117°54'176362.4 300 / 121011.010.8 19.015.726.0
2018-Sep-23 02:30N 32°58' W 117°57'920.8
2018-Sep-23 02:04N 33°06' W 118°01'121.0
2018-Sep-23 02:00N 33°07' W 118°01'1020.7
2018-Sep-23 01:30N 33°17' W 118°06'920.9
2018-Sep-23 01:04N 33°26' W 118°09'120.9
2018-Sep-23 01:00N 33°27' W 118°10'918.1
2018-Sep-23 00:30N 33°36' W 118°13'512.1
2018-Sep-23 00:03N 33°41' W 118°12'112.3
2018-Sep-23 00:00N 33°41' W 118°11'4 7.1
2018-Sep-22 23:31N 33°45' W 118°11'0 0.0
2018-Sep-22 23:01N 33°45' W 118°11'0 0.0
2018-Sep-22 22:58N 33°45' W 118°11'0 0.0
2018-Sep-22 22:28N 33°45' W 118°11'0 0.0
2018-Sep-22 22:01N 33°45' W 118°11'0 0.0
2018-Sep-22 21:58N 33°45' W 118°11'0 0.0
2018-Sep-22 21:28N 33°45' W 118°11'0 0.0
2018-Sep-22 21:03N 33°45' W 118°11'0 0.0
2018-Sep-22 21:00N 33°45' W 118°11'0 0.0
2018-Sep-22 20:30N 33°45' W 118°11'0 0.0
2018-Sep-22 20:03N 33°45' W 118°11'0 0.0
2018-Sep-22 20:00N 33°45' W 118°11'0 0.0
2018-Sep-22 19:30N 33°45' W 118°11'0 0.0
2018-Sep-22 19:03N 33°45' W 118°11'0 0.0
2018-Sep-22 19:00N 33°45' W 118°11'0 0.0
2018-Sep-22 18:29N 33°45' W 118°11'0 0.0
2018-Sep-22 18:02N 33°45' W 118°11'0 0.0
2018-Sep-22 17:59N 33°45' W 118°11'0 0.0
2018-Sep-22 17:29N 33°45' W 118°11'0 0.0
2018-Sep-22 17:02N 33°45' W 118°11'0 0.0
2018-Sep-22 16:59N 33°45' W 118°11'0 0.0
2018-Sep-22 16:29N 33°45' W 118°11'0 0.0
2018-Sep-22 16:01N 33°45' W 118°11'0 0.0
2018-Sep-22 15:58N 33°45' W 118°11'0 0.0
2018-Sep-22 15:28N 33°45' W 118°11'0 0.0
2018-Sep-22 15:01N 33°45' W 118°11'0 0.0
2018-Sep-22 14:58N 33°45' W 118°11'0 0.0
2018-Sep-22 14:28N 33°45' W 118°11'0 0.0
2018-Sep-22 14:00N 33°45' W 118°11'0 0.5
2018-Sep-22 13:30N 33°45' W 118°11'4 8.0
2018-Sep-22 13:03N 33°41' W 118°11'0 9.1
2018-Sep-22 13:00N 33°41' W 118°11'611.4
2018-Sep-22 12:30N 33°35' W 118°09'613.6
2018-Sep-22 12:03N 33°29' W 118°07'114.0
2018-Sep-22 12:00N 33°29' W 118°07'611.7
2018-Sep-22 11:30N 33°23' W 118°04'716.3
2018-Sep-22 11:04N 33°16' W 118°01'116.0
2018-Sep-22 11:00N 33°16' W 118°01'917.8
2018-Sep-22 10:31N 33°07' W 117°58'818.5
2018-Sep-22 10:03N 32°59' W 117°54'118.7
2018-Sep-22 10:00N 32°59' W 117°54'918.5
2018-Sep-22 09:30N 32°50' W 117°50'818.4
2018-Sep-22 09:03N 32°42' W 117°47'118.4
2018-Sep-22 09:00N 32°41' W 117°47'12717.1
2018-Sep-22 09:00N 32°30' W 117°42'3 5.5 280 / 151014.010.8 18.016.320.0
2018-Sep-22 08:30N 32°33' W 117°43'817.8
2018-Sep-22 08:03N 32°25' W 117°40'118.1
2018-Sep-22 08:01N 32°24' W 117°39'918.0
2018-Sep-22 07:30N 32°16' W 117°36'817.9
2018-Sep-22 07:04N 32°08' W 117°33'117.4
2018-Sep-22 07:01N 32°07' W 117°32'917.9
2018-Sep-22 06:31N 31°59' W 117°29'818.0
2018-Sep-22 06:03N 31°51' W 117°26'117.9
2018-Sep-22 06:00N 31°50' W 117°25'917.7
2018-Sep-22 05:30N 31°42' W 117°22'817.6
2018-Sep-22 05:03N 31°35' W 117°19'117.4
2018-Sep-22 05:00N 31°34' W 117°18'917.7
2018-Sep-22 04:30N 31°25' W 117°15'817.8
2018-Sep-22 04:03N 31°18' W 117°12'117.9
2018-Sep-22 04:00N 31°17' W 117°11'174.5
2018-Sep-22 04:00N 31°18' W 117°12'1020.6 310 / 141014.0 5.4 20.014.920.0
2018-Sep-22 03:30N 31°09' W 117°08'817.2
2018-Sep-22 03:03N 31°01' W 117°05'116.9
2018-Sep-22 03:00N 31°01' W 117°05'8474.6
2018-Sep-22 03:00N 30°54' W 117°00'2 4.0 320 / 151014.010.8 28.023.726.0
2018-Sep-22 02:30N 30°52' W 117°01'818.5
2018-Sep-22 02:03N 30°45' W 116°58'120.1
2018-Sep-22 02:00N 30°44' W 116°58'1019.7
2018-Sep-22 01:30N 30°34' W 116°54'919.9
2018-Sep-22 01:04N 30°26' W 116°50'119.7
2018-Sep-22 01:00N 30°25' W 116°50'1020.0
2018-Sep-22 00:30N 30°16' W 116°46'920.1
2018-Sep-22 00:03N 30°07' W 116°43'119.9
2018-Sep-22 00:00N 30°06' W 116°42'1020.2
2018-Sep-21 23:30N 29°57' W 116°38'919.9
2018-Sep-21 23:03N 29°48' W 116°35'119.9
2018-Sep-21 23:00N 29°47' W 116°35'1020.0
2018-Sep-21 22:31N 29°38' W 116°31'919.3
2018-Sep-21 22:03N 29°30' W 116°27'119.1
2018-Sep-21 22:00N 29°29' W 116°27'1019.2
2018-Sep-21 21:30N 29°20' W 116°22'919.4
2018-Sep-21 21:01N 29°11' W 116°19'119.8
2018-Sep-21 20:59N 29°10' W 116°18'919.8
2018-Sep-21 20:30N 29°01' W 116°16'1519.9
2018-Sep-21 19:45N 28°47' W 116°10'519.9
2018-Sep-21 19:30N 28°42' W 116°08'1219.7
2018-Sep-21 18:53N 28°31' W 116°04'819.5
2018-Sep-21 18:28N 28°23' W 116°01'919.7
2018-Sep-21 18:02N 28°15' W 115°57'019.5
2018-Sep-21 18:00N 28°15' W 115°57'4300.5
2018-Sep-21 18:00N 28°12' W 115°54'713.3 340 / 151014.010.8 19.713.322.0
2018-Sep-21 17:30N 28°06' W 115°52'919.8
2018-Sep-21 17:03N 27°59' W 115°46'14224.5
2018-Sep-21 17:00N 27°48' W 115°36'131190.8 330 / 151014.010.8 20.314.721.0
2018-Sep-21 16:59N 27°57' W 115°45'1619.5
2018-Sep-21 16:11N 27°45' W 115°35'1893.6
2018-Sep-21 16:00N 27°30' W 115°24'1043.3 350 / 151014.010.8 19.914.621.0
2018-Sep-21 15:46N 27°39' W 115°29'520.4
2018-Sep-21 15:30N 27°34' W 115°25'1720.3
2018-Sep-21 14:40N 27°21' W 115°14'2740.4
2018-Sep-21 14:00N 27°00' W 114°54'131085.5 320 / 201013.010.8 20.016.725.0
2018-Sep-21 13:59N 27°10' W 115°04'1020.5
2018-Sep-21 13:30N 27°02' W 114°58'13821.2
2018-Sep-21 07:00N 25°12' W 113°24'5317.7 310 / 151012.0 5.4 25.023.526.0
2018-Sep-21 04:00N 24°30' W 112°48'3718.6 280 / 131011.0 5.4 25.018.825.0
2018-Sep-21 02:00N 24°00' W 112°24'9318.7 300 / 121010.010.8 25.022.027.0
2018-Sep-20 21:00N 23°00' W 111°06'7625.2 240 / 151011.010.8 27.019.429.0
2018-Sep-20 18:00N 22°24' W 109°54'3517.7 240 / 141010.010.8 28.023.729.0
2018-Sep-20 16:00N 22°12' W 109°18'5116.9 210 / 211010.010.8 28.422.729.0
2018-Sep-20 13:00N 21°48' W 108°30'18320.3 020 / 201010.010.8 28.023.730.0
2018-Sep-20 04:00N 20°36' W 105°30'6 0.4 350 / 91010.010.8 30.022.831.0
2018-Sep-19 12:00N 20°36' W 105°36'5618.6 180 / 91008.010.8 27.024.129.0
2018-Sep-19 09:00N 21°00' W 106°30'5413.4 230 / 11009.010.8 28.023.728.0
2018-Sep-19 05:00N 21°42' W 107°06'1918.8 160 / 161009.0 5.4 29.023.230.0
2018-Sep-19 04:00N 22°00' W 107°00'8 8.2 140 / 151009.010.8 29.023.230.0
2018-Sep-19 03:00N 22°06' W 106°54'2121.2 130 / 151009.010.8 28.724.331.0
2018-Sep-19 02:00N 22°24' W 106°42'1918.8 120 / 91009.010.8 28.523.630.0
2018-Sep-19 01:00N 22°42' W 106°36'122 6.1 070 / 41009.010.8 28.025.229.0
2018-Sep-18 05:00N 22°54' W 108°48'2222.1 060 / 121009.0 5.4 28.022.130.0
2018-Sep-18 04:00N 22°54' W 109°12'34 5.6 140 / 101009.0 5.4 28.022.130.0
2018-Sep-17 22:00N 22°48' W 109°48'56 6.2 080 / 81009.0 5.4 28.022.128.0
2018-Sep-17 13:00N 22°54' W 110°48'10220.4 070 / 151008.010.8 28.023.729.0
2018-Sep-17 08:00N 23°54' W 112°18'3216.2 010 / 11009.010.8 27.022.628.0
2018-Sep-17 06:00N 24°18' W 112°42'2929.1 340 / 51010.0 5.4 26.024.626.0
2018-Sep-17 05:00N 24°42' W 113°00'2121.0 290 / 71010.010.8 26.724.126.0
2018-Sep-17 04:00N 25°00' W 113°12'12121.0 270 / 121009.010.8 26.223.926.0
2018-Sep-16 22:14N 26°35' W 114°35'521.0
2018-Sep-16 22:00N 26°39' W 114°38'1121.2
2018-Sep-16 21:28N 26°48' W 114°46'920.8
2018-Sep-16 21:03N 26°55' W 114°52'121.1
2018-Sep-16 21:00N 26°55' W 114°52'1020.5
2018-Sep-16 20:30N 27°04' W 114°59'920.2
2018-Sep-16 20:02N 27°11' W 115°06'7144.5
2018-Sep-16 20:00N 27°06' W 115°00'814638.9 330 / 81011.010.8 22.018.920.0
2018-Sep-16 19:59N 27°12' W 115°06'1020.2
2018-Sep-16 19:30N 27°20' W 115°13'920.3
2018-Sep-16 19:03N 27°27' W 115°19'120.7
2018-Sep-16 19:00N 27°28' W 115°20'1020.2
2018-Sep-16 18:29N 27°36' W 115°27'920.4
2018-Sep-16 18:02N 27°43' W 115°33'119.9
2018-Sep-16 18:00N 27°44' W 115°34'1020.6
2018-Sep-16 17:30N 27°52' W 115°41'920.7
2018-Sep-16 17:03N 27°60' W 115°47'120.9
2018-Sep-16 17:00N 28°00' W 115°48'5367.5
2018-Sep-16 17:00N 28°00' W 115°42'1726.7 010 / 151013.010.8 21.118.121.0
2018-Sep-16 16:22N 28°12' W 115°56'720.7
2018-Sep-16 16:01N 28°18' W 115°59'8418.6
2018-Sep-16 16:00N 28°12' W 115°54'2530.0 010 / 131012.010.8 21.218.021.0
2018-Sep-16 15:09N 28°35' W 116°05'18116.0
2018-Sep-16 15:00N 28°18' W 116°00'4343.3 350 / 121012.010.8 21.017.621.0
2018-Sep-16 14:00N 29°00' W 116°12'1221.1 350 / 111011.010.8 20.016.725.0
2018-Sep-16 13:25N 29°10' W 116°19'1722.0
2018-Sep-16 12:39N 29°26' W 116°26'421.8
2018-Sep-16 12:29N 29°30' W 116°27'921.5
2018-Sep-16 12:04N 29°38' W 116°31'121.3
2018-Sep-16 12:00N 29°39' W 116°31'1321.5
2018-Sep-16 11:25N 29°51' W 116°36'821.0
2018-Sep-16 11:02N 29°59' W 116°39'121.3
2018-Sep-16 11:00N 29°59' W 116°39'1121.3
2018-Sep-16 10:30N 30°09' W 116°44'1021.4
2018-Sep-16 10:03N 30°18' W 116°47'121.5
2018-Sep-16 10:00N 30°19' W 116°48'1121.4
2018-Sep-16 09:30N 30°29' W 116°52'1021.4
2018-Sep-16 09:03N 30°39' W 116°56'121.0
2018-Sep-16 09:00N 30°40' W 116°56'128647.9
2018-Sep-16 09:00N 30°30' W 116°48'2245.2 310 / 181010.010.8 20.014.919.0
2018-Sep-16 08:30N 30°50' W 117°00'921.6
2018-Sep-16 08:04N 30°59' W 117°04'121.1
2018-Sep-16 08:00N 30°60' W 117°04'1121.8
2018-Sep-16 07:30N 31°10' W 117°09'1021.7
2018-Sep-16 07:03N 31°19' W 117°12'121.7
2018-Sep-16 07:00N 31°20' W 117°13'2160.4
2018-Sep-16 07:00N 31°18' W 117°12'1327.1 320 / 211010.010.8 19.816.520.0
2018-Sep-16 06:30N 31°30' W 117°17'1021.1
2018-Sep-16 06:03N 31°39' W 117°21'121.1
2018-Sep-16 06:00N 31°40' W 117°21'11729.4
2018-Sep-16 06:00N 31°30' W 117°18'2143.7 320 / 191010.010.8 20.016.721.0
2018-Sep-16 05:30N 31°50' W 117°25'1021.6
2018-Sep-16 05:03N 31°59' W 117°29'121.6
2018-Sep-16 05:00N 32°01' W 117°30'139.8
2018-Sep-16 05:00N 32°00' W 117°30'1123.2 320 / 181010.010.8 19.615.421.0
2018-Sep-16 04:30N 32°11' W 117°34'1021.5
2018-Sep-16 04:03N 32°20' W 117°38'120.8
2018-Sep-16 04:00N 32°21' W 117°38'3202.9
2018-Sep-16 04:00N 32°18' W 117°36'1428.2 310 / 121010.010.8 19.716.921.0
2018-Sep-16 03:30N 32°30' W 117°43'920.6
2018-Sep-16 03:03N 32°38' W 117°48'120.5
2018-Sep-16 03:00N 32°39' W 117°49'1020.0
2018-Sep-16 02:30N 32°49' W 117°52'920.0
2018-Sep-16 02:03N 32°57' W 117°57'120.3
2018-Sep-16 02:00N 32°58' W 117°57'1020.3
2018-Sep-16 01:30N 33°08' W 118°01'920.6
2018-Sep-16 01:03N 33°16' W 118°05'120.8
2018-Sep-16 01:00N 33°17' W 118°05'1020.8
2018-Sep-16 00:30N 33°27' W 118°10'919.1
2018-Sep-16 00:03N 33°35' W 118°13'113.0
2018-Sep-16 00:00N 33°36' W 118°13'612.2
2018-Sep-15 23:30N 33°42' W 118°11'3 6.9
2018-Sep-15 23:02N 33°45' W 118°11'0 0.0
2018-Sep-15 22:59N 33°45' W 118°11'0 0.0
2018-Sep-15 22:29N 33°45' W 118°11'0 0.0
2018-Sep-15 22:02N 33°45' W 118°11'0 0.0
2018-Sep-15 21:59N 33°45' W 118°11'0 0.0
2018-Sep-15 21:29N 33°45' W 118°11'0 0.0
2018-Sep-15 21:01N 33°45' W 118°11'0 0.0
2018-Sep-15 20:58N 33°45' W 118°11'0 0.0
2018-Sep-15 20:28N 33°45' W 118°11'0 0.0
2018-Sep-15 20:01N 33°45' W 118°11'0 0.0
2018-Sep-15 19:58N 33°45' W 118°11'0 0.0
2018-Sep-15 19:28N 33°45' W 118°11'0 0.0
2018-Sep-15 19:04N 33°45' W 118°11'0 0.0
2018-Sep-15 19:00N 33°45' W 118°11'0 0.0
2018-Sep-15 18:30N 33°45' W 118°11'0 0.0
2018-Sep-15 18:03N 33°45' W 118°11'0 0.0
2018-Sep-15 18:00N 33°45' W 118°11'0 0.0
2018-Sep-15 17:30N 33°45' W 118°11'0 0.0
2018-Sep-15 17:03N 33°45' W 118°11'0 0.0
2018-Sep-15 17:00N 33°45' W 118°11'0 0.0
2018-Sep-15 16:29N 33°45' W 118°11'0 0.0
2018-Sep-15 16:02N 33°45' W 118°11'0 0.0
2018-Sep-15 15:59N 33°45' W 118°11'0 0.0
2018-Sep-15 15:29N 33°45' W 118°11'0 0.0
2018-Sep-15 15:02N 33°45' W 118°11'0 0.0
2018-Sep-15 14:29N 33°45' W 118°11'0 0.0
2018-Sep-15 14:00N 33°45' W 118°11'0 0.9
2018-Sep-15 13:30N 33°45' W 118°11'4 8.3
2018-Sep-15 13:03N 33°41' W 118°11'111.3
2018-Sep-15 13:00N 33°40' W 118°10'510.9
2018-Sep-15 12:30N 33°35' W 118°09'613.9
2018-Sep-15 12:03N 33°29' W 118°07'0 6.2
2018-Sep-15 12:00N 33°29' W 118°07'713.1
2018-Sep-15 11:31N 33°23' W 118°04'714.5
2018-Sep-15 11:03N 33°16' W 118°01'113.1
2018-Sep-15 11:00N 33°16' W 118°01'816.3
2018-Sep-15 10:31N 33°08' W 117°58'817.8
2018-Sep-15 10:03N 33°01' W 117°55'117.9
2018-Sep-15 10:00N 32°60' W 117°54'022.0
2018-Sep-15 10:00N 33°00' W 117°54'918.7 280 / 211008.010.8 19.015.718.0
2018-Sep-15 09:31N 32°51' W 117°51'818.2
2018-Sep-15 09:04N 32°44' W 117°48'118.7
2018-Sep-15 09:00N 32°43' W 117°47'918.4
2018-Sep-15 08:30N 32°34' W 117°44'818.1
2018-Sep-15 08:03N 32°26' W 117°40'117.5
2018-Sep-15 08:00N 32°26' W 117°40'917.5
2018-Sep-15 07:30N 32°17' W 117°37'817.7
2018-Sep-15 07:03N 32°10' W 117°33'118.0
2018-Sep-15 07:00N 32°09' W 117°33'9569.4
2018-Sep-15 07:00N 32°00' W 117°30'1 1.7 290 / 181009.010.8 19.716.821.0
2018-Sep-15 06:30N 32°01' W 117°29'817.9
2018-Sep-15 06:03N 31°53' W 117°26'117.7
2018-Sep-15 06:00N 31°52' W 117°25'4303.2
2018-Sep-15 06:00N 31°48' W 117°24'4 9.1 300 / 181009.010.8 20.016.721.0
2018-Sep-15 05:31N 31°44' W 117°22'817.7
2018-Sep-15 05:03N 31°36' W 117°19'117.4
2018-Sep-15 05:00N 31°35' W 117°19'6367.2
2018-Sep-15 05:00N 31°30' W 117°18'4 8.3 310 / 191009.010.8 20.016.721.0
2018-Sep-15 04:30N 31°27' W 117°15'919.1
2018-Sep-15 04:03N 31°19' W 117°12'119.1
2018-Sep-15 04:00N 31°18' W 117°11'140.3
2018-Sep-15 04:00N 31°18' W 117°12'1020.2 310 / 221009.010.8 20.016.721.0
2018-Sep-15 03:30N 31°09' W 117°08'919.0
2018-Sep-15 03:03N 31°01' W 117°05'118.9
2018-Sep-15 03:00N 30°60' W 117°04'121061.8
2018-Sep-15 03:00N 30°48' W 117°00'3 6.1 300 / 251007.010.8 21.017.825.0
2018-Sep-15 02:30N 30°51' W 117°01'919.3
2018-Sep-15 02:03N 30°43' W 116°57'119.6
2018-Sep-15 02:00N 30°42' W 116°57'1019.9
2018-Sep-15 01:30N 30°32' W 116°53'920.1
2018-Sep-15 01:03N 30°24' W 116°49'120.2
2018-Sep-15 01:00N 30°23' W 116°49'1019.9
2018-Sep-15 00:29N 30°13' W 116°45'1120.0
2018-Sep-14 23:58N 30°03' W 116°41'920.0
2018-Sep-14 23:30N 29°55' W 116°38'919.9
2018-Sep-14 23:03N 29°46' W 116°34'119.6
2018-Sep-14 23:00N 29°45' W 116°34'1019.7
2018-Sep-14 22:30N 29°36' W 116°30'919.6
2018-Sep-14 22:03N 29°28' W 116°27'119.2
2018-Sep-14 22:00N 29°27' W 116°26'4323.8
2018-Sep-14 22:00N 29°30' W 116°24'1325.9 310 / 201008.010.8 21.017.822.0
2018-Sep-14 21:30N 29°18' W 116°22'919.9
2018-Sep-14 21:03N 29°09' W 116°19'219.8
2018-Sep-14 20:59N 29°08' W 116°18'1019.4
2018-Sep-14 20:28N 28°58' W 116°15'819.3
2018-Sep-14 20:03N 28°51' W 116°12'119.4
2018-Sep-14 20:00N 28°50' W 116°11'1019.5
2018-Sep-14 19:29N 28°40' W 116°07'919.7
2018-Sep-14 19:03N 28°32' W 116°04'120.0
2018-Sep-14 19:00N 28°31' W 116°04'81186.2
2018-Sep-14 19:00N 28°24' W 116°00'2 4.2 330 / 201010.010.8 21.318.820.0
2018-Sep-14 18:30N 28°22' W 116°00'920.0
2018-Sep-14 18:03N 28°13' W 115°57'120.2
2018-Sep-14 18:00N 28°13' W 115°56'2126.6
2018-Sep-14 18:00N 28°12' W 115°54'917.7 330 / 201010.010.8 21.118.620.0
2018-Sep-14 17:30N 28°04' W 115°51'919.6
2018-Sep-14 17:03N 27°57' W 115°45'119.4
2018-Sep-14 17:00N 27°56' W 115°44'3194.9
2018-Sep-14 17:00N 27°54' W 115°42'714.6 340 / 221009.010.8 21.018.620.0
2018-Sep-14 16:29N 27°48' W 115°37'920.1
2018-Sep-14 16:03N 27°41' W 115°31'120.6
2018-Sep-14 16:00N 27°40' W 115°31'2111.8
2018-Sep-14 16:00N 27°42' W 115°30'1123.3 340 / 211009.010.8 21.017.820.0
2018-Sep-14 15:30N 27°32' W 115°24'1019.8
2018-Sep-14 15:01N 27°25' W 115°17'119.9
2018-Sep-14 14:58N 27°24' W 115°16'1020.3
2018-Sep-14 14:29N 27°16' W 115°10'1020.5
2018-Sep-14 14:00N 27°08' W 115°03'1020.3
2018-Sep-14 13:30N 26°60' W 114°56'919.9
2018-Sep-14 13:03N 26°53' W 114°50'119.7
2018-Sep-14 13:00N 26°52' W 114°49'4534.1
2018-Sep-14 13:00N 26°48' W 114°48'   330 / 191008.010.8 21.019.425.0
Track history (hours):
 
Tides and Currents Weather Stations Pressure Air Temp Water Temp Dewpoint Dewpoint Depression Visibility Wind Speed Wind Dir Waves Ship Positions

Carnival Splendor

Last reported at 2018-Sep-24 13:00 UTC. Time now 2018-Sep-24 21:35 UTC.
Position N 22°54' W 110°48'.

Length 289 m; draft 8.4 m.

Type: Passenger vessel. MMSI: 372808000.

Wind from 340 at 5 knots

Barometer 1008.0 mb
Air temperature 27.0 ° C
Visibility: greater than 10.8 NM
Dewpoint 19.4 ° C
Water temperature 28.0 ° C

Date/timePositionNaut miles runAvg speedWind from/ knotsBaromVisibWave heightAir tempDewpointWater temp
2018-Sep-24 13:00N 22°54' W 110°48'17021.3 340 / 51008.010.8 27.019.428.0
2018-Sep-24 05:00N 24°48' W 113°06'13120.4 300 / 101009.010.8 24.720.525.0
2018-Sep-23 22:33N 26°34' W 114°32'220.9
2018-Sep-23 22:29N 26°35' W 114°33'1820.5
2018-Sep-23 21:35N 26°50' W 114°46'220.8
2018-Sep-23 21:29N 26°51' W 114°47'1021.4
2018-Sep-23 21:00N 26°59' W 114°55'1821.3
2018-Sep-23 20:08N 27°14' W 115°07'221.0
2018-Sep-23 20:02N 27°16' W 115°09'121.4
2018-Sep-23 19:58N 27°17' W 115°10'1021.3
2018-Sep-23 19:30N 27°25' W 115°16'1325.9
2018-Sep-23 19:00N 27°36' W 115°24'312.8 360 / 151012.010.8 20.616.122.0
2018-Sep-23 18:48N 27°36' W 115°27'621.3
2018-Sep-23 18:30N 27°41' W 115°31'815.5
2018-Sep-23 18:00N 27°48' W 115°36'1427.0 350 / 151013.010.8 20.014.922.0
2018-Sep-23 17:28N 27°59' W 115°46'1020.7
2018-Sep-23 17:00N 28°06' W 115°54'1313.1 360 / 111013.010.8 20.016.021.0
2018-Sep-23 16:00N 28°18' W 116°00'1748.0 330 / 151012.010.8 20.016.722.0
2018-Sep-23 15:39N 28°34' W 116°05'721.6
2018-Sep-23 15:19N 28°41' W 116°08'1121.5
2018-Sep-23 14:49N 28°51' W 116°12'1721.6
2018-Sep-23 14:02N 29°07' W 116°19'5123.3
2018-Sep-23 14:00N 29°12' W 116°18'714.6 330 / 161011.010.8 19.013.828.0
2018-Sep-23 13:31N 29°17' W 116°23'1021.9
2018-Sep-23 13:04N 29°27' W 116°27'121.7
2018-Sep-23 13:00N 29°28' W 116°28'1321.6
2018-Sep-23 12:24N 29°40' W 116°33'821.5
2018-Sep-23 12:03N 29°47' W 116°36'221.4
2018-Sep-23 11:58N 29°49' W 116°36'1021.4
2018-Sep-23 11:29N 29°58' W 116°40'921.4
2018-Sep-23 11:03N 30°07' W 116°44'121.6
2018-Sep-23 11:00N 30°08' W 116°45'1121.3
2018-Sep-23 10:31N 30°18' W 116°49'1021.4
2018-Sep-23 10:03N 30°27' W 116°53'121.1
2018-Sep-23 10:01N 30°28' W 116°53'1121.1
2018-Sep-23 09:31N 30°38' W 116°57'1021.4
2018-Sep-23 09:04N 30°47' W 117°01'121.3
2018-Sep-23 09:00N 30°48' W 117°01'6374.3
2018-Sep-23 09:00N 30°42' W 117°00'1734.9 310 / 151011.010.8 17.015.318.0
2018-Sep-23 08:30N 30°58' W 117°06'1021.5
2018-Sep-23 08:04N 31°07' W 117°10'121.6
2018-Sep-23 08:00N 31°08' W 117°10'1121.5
2018-Sep-23 07:30N 31°18' W 117°14'1021.4
2018-Sep-23 07:03N 31°27' W 117°19'121.1
2018-Sep-23 07:00N 31°28' W 117°19'1121.3
2018-Sep-23 06:30N 31°38' W 117°24'1021.4
2018-Sep-23 06:04N 31°47' W 117°27'121.3
2018-Sep-23 06:00N 31°49' W 117°27'1121.3
2018-Sep-23 05:30N 31°58' W 117°31'1021.6
2018-Sep-23 05:03N 32°08' W 117°35'121.5
2018-Sep-23 05:00N 32°09' W 117°36'3157.9
2018-Sep-23 05:00N 32°06' W 117°36'1327.4 300 / 161011.010.8 18.014.620.0
2018-Sep-23 04:30N 32°19' W 117°40'1021.6
2018-Sep-23 04:03N 32°28' W 117°44'121.7
2018-Sep-23 04:00N 32°29' W 117°45'1020.7
2018-Sep-23 03:31N 32°39' W 117°48'920.4
2018-Sep-23 03:04N 32°48' W 117°51'120.4
2018-Sep-23 03:01N 32°49' W 117°51'18511120.5
2018-Sep-23 03:00N 35°54' W 117°54'176362.4 300 / 121011.010.8 19.015.726.0
2018-Sep-23 02:30N 32°58' W 117°57'920.8
2018-Sep-23 02:04N 33°06' W 118°01'121.0
2018-Sep-23 02:00N 33°07' W 118°01'1020.7
2018-Sep-23 01:30N 33°17' W 118°06'920.9
2018-Sep-23 01:04N 33°26' W 118°09'120.9
2018-Sep-23 01:00N 33°27' W 118°10'918.1
2018-Sep-23 00:30N 33°36' W 118°13'512.1
2018-Sep-23 00:03N 33°41' W 118°12'112.3
2018-Sep-23 00:00N 33°41' W 118°11'4 7.1
2018-Sep-22 23:31N 33°45' W 118°11'0 0.0
2018-Sep-22 23:01N 33°45' W 118°11'0 0.0
2018-Sep-22 22:58N 33°45' W 118°11'0 0.0
2018-Sep-22 22:28N 33°45' W 118°11'0 0.0
2018-Sep-22 22:01N 33°45' W 118°11'0 0.0
2018-Sep-22 21:58N 33°45' W 118°11'0 0.0
2018-Sep-22 21:28N 33°45' W 118°11'0 0.0
2018-Sep-22 21:03N 33°45' W 118°11'0 0.0
2018-Sep-22 21:00N 33°45' W 118°11'0 0.0
2018-Sep-22 20:30N 33°45' W 118°11'0 0.0
2018-Sep-22 20:03N 33°45' W 118°11'0 0.0
2018-Sep-22 20:00N 33°45' W 118°11'0 0.0
2018-Sep-22 19:30N 33°45' W 118°11'0 0.0
2018-Sep-22 19:03N 33°45' W 118°11'0 0.0
2018-Sep-22 19:00N 33°45' W 118°11'0 0.0
2018-Sep-22 18:29N 33°45' W 118°11'0 0.0
2018-Sep-22 18:02N 33°45' W 118°11'0 0.0
2018-Sep-22 17:59N 33°45' W 118°11'0 0.0
2018-Sep-22 17:29N 33°45' W 118°11'0 0.0
2018-Sep-22 17:02N 33°45' W 118°11'0 0.0
2018-Sep-22 16:59N 33°45' W 118°11'0 0.0
2018-Sep-22 16:29N 33°45' W 118°11'0 0.0
2018-Sep-22 16:01N 33°45' W 118°11'0 0.0
2018-Sep-22 15:58N 33°45' W 118°11'0 0.0
2018-Sep-22 15:28N 33°45' W 118°11'0 0.0
2018-Sep-22 15:01N 33°45' W 118°11'0 0.0
2018-Sep-22 14:58N 33°45' W 118°11'0 0.0
2018-Sep-22 14:28N 33°45' W 118°11'0 0.0
2018-Sep-22 14:00N 33°45' W 118°11'0 0.5
2018-Sep-22 13:30N 33°45' W 118°11'4 8.0
2018-Sep-22 13:03N 33°41' W 118°11'0 9.1
2018-Sep-22 13:00N 33°41' W 118°11'611.4
2018-Sep-22 12:30N 33°35' W 118°09'613.6
2018-Sep-22 12:03N 33°29' W 118°07'114.0
2018-Sep-22 12:00N 33°29' W 118°07'611.7
2018-Sep-22 11:30N 33°23' W 118°04'716.3
2018-Sep-22 11:04N 33°16' W 118°01'116.0
2018-Sep-22 11:00N 33°16' W 118°01'917.8
2018-Sep-22 10:31N 33°07' W 117°58'818.5
2018-Sep-22 10:03N 32°59' W 117°54'118.7
2018-Sep-22 10:00N 32°59' W 117°54'918.5
2018-Sep-22 09:30N 32°50' W 117°50'818.4
2018-Sep-22 09:03N 32°42' W 117°47'118.4
2018-Sep-22 09:00N 32°41' W 117°47'12717.1
2018-Sep-22 09:00N 32°30' W 117°42'3 5.5 280 / 151014.010.8 18.016.320.0
2018-Sep-22 08:30N 32°33' W 117°43'817.8
2018-Sep-22 08:03N 32°25' W 117°40'118.1
2018-Sep-22 08:01N 32°24' W 117°39'918.0
2018-Sep-22 07:30N 32°16' W 117°36'817.9
2018-Sep-22 07:04N 32°08' W 117°33'117.4
2018-Sep-22 07:01N 32°07' W 117°32'917.9
2018-Sep-22 06:31N 31°59' W 117°29'818.0
2018-Sep-22 06:03N 31°51' W 117°26'117.9
2018-Sep-22 06:00N 31°50' W 117°25'917.7
2018-Sep-22 05:30N 31°42' W 117°22'817.6
2018-Sep-22 05:03N 31°35' W 117°19'117.4
2018-Sep-22 05:00N 31°34' W 117°18'917.7
2018-Sep-22 04:30N 31°25' W 117°15'817.8
2018-Sep-22 04:03N 31°18' W 117°12'117.9
2018-Sep-22 04:00N 31°17' W 117°11'174.5
2018-Sep-22 04:00N 31°18' W 117°12'1020.6 310 / 141014.0 5.4 20.014.920.0
2018-Sep-22 03:30N 31°09' W 117°08'817.2
2018-Sep-22 03:03N 31°01' W 117°05'116.9
2018-Sep-22 03:00N 31°01' W 117°05'8474.6
2018-Sep-22 03:00N 30°54' W 117°00'2 4.0 320 / 151014.010.8 28.023.726.0
2018-Sep-22 02:30N 30°52' W 117°01'818.5
2018-Sep-22 02:03N 30°45' W 116°58'120.1
2018-Sep-22 02:00N 30°44' W 116°58'1019.7
2018-Sep-22 01:30N 30°34' W 116°54'919.9
2018-Sep-22 01:04N 30°26' W 116°50'119.7
2018-Sep-22 01:00N 30°25' W 116°50'1020.0
2018-Sep-22 00:30N 30°16' W 116°46'920.1
2018-Sep-22 00:03N 30°07' W 116°43'119.9
2018-Sep-22 00:00N 30°06' W 116°42'1020.2
2018-Sep-21 23:30N 29°57' W 116°38'919.9
2018-Sep-21 23:03N 29°48' W 116°35'119.9
2018-Sep-21 23:00N 29°47' W 116°35'1020.0
2018-Sep-21 22:31N 29°38' W 116°31'919.3
2018-Sep-21 22:03N 29°30' W 116°27'119.1
2018-Sep-21 22:00N 29°29' W 116°27'1019.2
2018-Sep-21 21:30N 29°20' W 116°22'919.4
2018-Sep-21 21:01N 29°11' W 116°19'119.8
2018-Sep-21 20:59N 29°10' W 116°18'919.8
2018-Sep-21 20:30N 29°01' W 116°16'1519.9
2018-Sep-21 19:45N 28°47' W 116°10'519.9
2018-Sep-21 19:30N 28°42' W 116°08'1219.7
2018-Sep-21 18:53N 28°31' W 116°04'819.5
2018-Sep-21 18:28N 28°23' W 116°01'919.7
2018-Sep-21 18:02N 28°15' W 115°57'019.5
2018-Sep-21 18:00N 28°15' W 115°57'4300.5
2018-Sep-21 18:00N 28°12' W 115°54'713.3 340 / 151014.010.8 19.713.322.0
2018-Sep-21 17:30N 28°06' W 115°52'919.8
2018-Sep-21 17:03N 27°59' W 115°46'14224.5
2018-Sep-21 17:00N 27°48' W 115°36'131190.8 330 / 151014.010.8 20.314.721.0
2018-Sep-21 16:59N 27°57' W 115°45'1619.5
2018-Sep-21 16:11N 27°45' W 115°35'1893.6
2018-Sep-21 16:00N 27°30' W 115°24'1043.3 350 / 151014.010.8 19.914.621.0
2018-Sep-21 15:46N 27°39' W 115°29'520.4
2018-Sep-21 15:30N 27°34' W 115°25'1720.3
2018-Sep-21 14:40N 27°21' W 115°14'2740.4
2018-Sep-21 14:00N 27°00' W 114°54'131085.5 320 / 201013.010.8 20.016.725.0
2018-Sep-21 13:59N 27°10' W 115°04'1020.5
2018-Sep-21 13:30N 27°02' W 114°58'13821.2
2018-Sep-21 07:00N 25°12' W 113°24'5317.7 310 / 151012.0 5.4 25.023.526.0
2018-Sep-21 04:00N 24°30' W 112°48'3718.6 280 / 131011.0 5.4 25.018.825.0
2018-Sep-21 02:00N 24°00' W 112°24'9318.7 300 / 121010.010.8 25.022.027.0
2018-Sep-20 21:00N 23°00' W 111°06'7625.2 240 / 151011.010.8 27.019.429.0
2018-Sep-20 18:00N 22°24' W 109°54'3517.7 240 / 141010.010.8 28.023.729.0
2018-Sep-20 16:00N 22°12' W 109°18'5116.9 210 / 211010.010.8 28.422.729.0
2018-Sep-20 13:00N 21°48' W 108°30'18320.3 020 / 201010.010.8 28.023.730.0
2018-Sep-20 04:00N 20°36' W 105°30'6 0.4 350 / 91010.010.8 30.022.831.0
2018-Sep-19 12:00N 20°36' W 105°36'5618.6 180 / 91008.010.8 27.024.129.0
2018-Sep-19 09:00N 21°00' W 106°30'5413.4 230 / 11009.010.8 28.023.728.0
2018-Sep-19 05:00N 21°42' W 107°06'1918.8 160 / 161009.0 5.4 29.023.230.0
2018-Sep-19 04:00N 22°00' W 107°00'8 8.2 140 / 151009.010.8 29.023.230.0
2018-Sep-19 03:00N 22°06' W 106°54'2121.2 130 / 151009.010.8 28.724.331.0
2018-Sep-19 02:00N 22°24' W 106°42'1918.8 120 / 91009.010.8 28.523.630.0
2018-Sep-19 01:00N 22°42' W 106°36'122 6.1 070 / 41009.010.8 28.025.229.0
2018-Sep-18 05:00N 22°54' W 108°48'2222.1 060 / 121009.0 5.4 28.022.130.0
2018-Sep-18 04:00N 22°54' W 109°12'34 5.6 140 / 101009.0 5.4 28.022.130.0
2018-Sep-17 22:00N 22°48' W 109°48'56 6.2 080 / 81009.0 5.4 28.022.128.0
2018-Sep-17 13:00N 22°54' W 110°48'10220.4 070 / 151008.010.8 28.023.729.0
2018-Sep-17 08:00N 23°54' W 112°18'3216.2 010 / 11009.010.8 27.022.628.0
2018-Sep-17 06:00N 24°18' W 112°42'2929.1 340 / 51010.0 5.4 26.024.626.0
2018-Sep-17 05:00N 24°42' W 113°00'2121.0 290 / 71010.010.8 26.724.126.0
2018-Sep-17 04:00N 25°00' W 113°12'12121.0 270 / 121009.010.8 26.223.926.0
2018-Sep-16 22:14N 26°35' W 114°35'521.0
2018-Sep-16 22:00N 26°39' W 114°38'1121.2
2018-Sep-16 21:28N 26°48' W 114°46'920.8
2018-Sep-16 21:03N 26°55' W 114°52'121.1
2018-Sep-16 21:00N 26°55' W 114°52'1020.5
2018-Sep-16 20:30N 27°04' W 114°59'920.2
2018-Sep-16 20:02N 27°11' W 115°06'7144.5
2018-Sep-16 20:00N 27°06' W 115°00'814638.9 330 / 81011.010.8 22.018.920.0
2018-Sep-16 19:59N 27°12' W 115°06'1020.2
2018-Sep-16 19:30N 27°20' W 115°13'920.3
2018-Sep-16 19:03N 27°27' W 115°19'120.7
2018-Sep-16 19:00N 27°28' W 115°20'1020.2
2018-Sep-16 18:29N 27°36' W 115°27'920.4
2018-Sep-16 18:02N 27°43' W 115°33'119.9
2018-Sep-16 18:00N 27°44' W 115°34'1020.6
2018-Sep-16 17:30N 27°52' W 115°41'920.7
2018-Sep-16 17:03N 27°60' W 115°47'120.9
2018-Sep-16 17:00N 28°00' W 115°48'5367.5
2018-Sep-16 17:00N 28°00' W 115°42'1726.7 010 / 151013.010.8 21.118.121.0
2018-Sep-16 16:22N 28°12' W 115°56'720.7
2018-Sep-16 16:01N 28°18' W 115°59'8418.6
2018-Sep-16 16:00N 28°12' W 115°54'2530.0 010 / 131012.010.8 21.218.021.0
2018-Sep-16 15:09N 28°35' W 116°05'18116.0
2018-Sep-16 15:00N 28°18' W 116°00'4343.3 350 / 121012.010.8 21.017.621.0
2018-Sep-16 14:00N 29°00' W 116°12'1221.1 350 / 111011.010.8 20.016.725.0
2018-Sep-16 13:25N 29°10' W 116°19'1722.0
2018-Sep-16 12:39N 29°26' W 116°26'421.8
2018-Sep-16 12:29N 29°30' W 116°27'921.5
2018-Sep-16 12:04N 29°38' W 116°31'121.3
2018-Sep-16 12:00N 29°39' W 116°31'1321.5
2018-Sep-16 11:25N 29°51' W 116°36'821.0
2018-Sep-16 11:02N 29°59' W 116°39'121.3
2018-Sep-16 11:00N 29°59' W 116°39'1121.3
2018-Sep-16 10:30N 30°09' W 116°44'1021.4
2018-Sep-16 10:03N 30°18' W 116°47'121.5
2018-Sep-16 10:00N 30°19' W 116°48'1121.4
2018-Sep-16 09:30N 30°29' W 116°52'1021.4
2018-Sep-16 09:03N 30°39' W 116°56'121.0
2018-Sep-16 09:00N 30°40' W 116°56'128647.9
2018-Sep-16 09:00N 30°30' W 116°48'2245.2 310 / 181010.010.8 20.014.919.0
2018-Sep-16 08:30N 30°50' W 117°00'921.6
2018-Sep-16 08:04N 30°59' W 117°04'121.1
2018-Sep-16 08:00N 30°60' W 117°04'1121.8
2018-Sep-16 07:30N 31°10' W 117°09'1021.7
2018-Sep-16 07:03N 31°19' W 117°12'121.7
2018-Sep-16 07:00N 31°20' W 117°13'2160.4
2018-Sep-16 07:00N 31°18' W 117°12'1327.1 320 / 211010.010.8 19.816.520.0
2018-Sep-16 06:30N 31°30' W 117°17'1021.1
2018-Sep-16 06:03N 31°39' W 117°21'121.1
2018-Sep-16 06:00N 31°40' W 117°21'11729.4
2018-Sep-16 06:00N 31°30' W 117°18'2143.7 320 / 191010.010.8 20.016.721.0
2018-Sep-16 05:30N 31°50' W 117°25'1021.6
2018-Sep-16 05:03N 31°59' W 117°29'121.6
2018-Sep-16 05:00N 32°01' W 117°30'139.8
2018-Sep-16 05:00N 32°00' W 117°30'1123.2 320 / 181010.010.8 19.615.421.0
2018-Sep-16 04:30N 32°11' W 117°34'1021.5
2018-Sep-16 04:03N 32°20' W 117°38'120.8
2018-Sep-16 04:00N 32°21' W 117°38'3202.9
2018-Sep-16 04:00N 32°18' W 117°36'1428.2 310 / 121010.010.8 19.716.921.0
2018-Sep-16 03:30N 32°30' W 117°43'920.6
2018-Sep-16 03:03N 32°38' W 117°48'120.5
2018-Sep-16 03:00N 32°39' W 117°49'1020.0
2018-Sep-16 02:30N 32°49' W 117°52'920.0
2018-Sep-16 02:03N 32°57' W 117°57'120.3
2018-Sep-16 02:00N 32°58' W 117°57'1020.3
2018-Sep-16 01:30N 33°08' W 118°01'920.6
2018-Sep-16 01:03N 33°16' W 118°05'120.8
2018-Sep-16 01:00N 33°17' W 118°05'1020.8
2018-Sep-16 00:30N 33°27' W 118°10'919.1
2018-Sep-16 00:03N 33°35' W 118°13'113.0
2018-Sep-16 00:00N 33°36' W 118°13'612.2
2018-Sep-15 23:30N 33°42' W 118°11'3 6.9
2018-Sep-15 23:02N 33°45' W 118°11'0 0.0
2018-Sep-15 22:59N 33°45' W 118°11'0 0.0
2018-Sep-15 22:29N 33°45' W 118°11'0 0.0
2018-Sep-15 22:02N 33°45' W 118°11'0 0.0
2018-Sep-15 21:59N 33°45' W 118°11'0 0.0
2018-Sep-15 21:29N 33°45' W 118°11'0 0.0
2018-Sep-15 21:01N 33°45' W 118°11'0 0.0
2018-Sep-15 20:58N 33°45' W 118°11'0 0.0
2018-Sep-15 20:28N 33°45' W 118°11'0 0.0
2018-Sep-15 20:01N 33°45' W 118°11'0 0.0
2018-Sep-15 19:58N 33°45' W 118°11'0 0.0
2018-Sep-15 19:28N 33°45' W 118°11'0 0.0
2018-Sep-15 19:04N 33°45' W 118°11'0 0.0
2018-Sep-15 19:00N 33°45' W 118°11'0 0.0
2018-Sep-15 18:30N 33°45' W 118°11'0 0.0
2018-Sep-15 18:03N 33°45' W 118°11'0 0.0
2018-Sep-15 18:00N 33°45' W 118°11'0 0.0
2018-Sep-15 17:30N 33°45' W 118°11'0 0.0
2018-Sep-15 17:03N 33°45' W 118°11'0 0.0
2018-Sep-15 17:00N 33°45' W 118°11'0 0.0
2018-Sep-15 16:29N 33°45' W 118°11'0 0.0
2018-Sep-15 16:02N 33°45' W 118°11'0 0.0
2018-Sep-15 15:59N 33°45' W 118°11'0 0.0
2018-Sep-15 15:29N 33°45' W 118°11'0 0.0
2018-Sep-15 15:02N 33°45' W 118°11'0 0.0
2018-Sep-15 14:29N 33°45' W 118°11'0 0.0
2018-Sep-15 14:00N 33°45' W 118°11'0 0.9
2018-Sep-15 13:30N 33°45' W 118°11'4 8.3
2018-Sep-15 13:03N 33°41' W 118°11'111.3
2018-Sep-15 13:00N 33°40' W 118°10'510.9
2018-Sep-15 12:30N 33°35' W 118°09'613.9
2018-Sep-15 12:03N 33°29' W 118°07'0 6.2
2018-Sep-15 12:00N 33°29' W 118°07'713.1
2018-Sep-15 11:31N 33°23' W 118°04'714.5
2018-Sep-15 11:03N 33°16' W 118°01'113.1
2018-Sep-15 11:00N 33°16' W 118°01'816.3
2018-Sep-15 10:31N 33°08' W 117°58'817.8
2018-Sep-15 10:03N 33°01' W 117°55'117.9
2018-Sep-15 10:00N 32°60' W 117°54'022.0
2018-Sep-15 10:00N 33°00' W 117°54'918.7 280 / 211008.010.8 19.015.718.0
2018-Sep-15 09:31N 32°51' W 117°51'818.2
2018-Sep-15 09:04N 32°44' W 117°48'118.7
2018-Sep-15 09:00N 32°43' W 117°47'918.4
2018-Sep-15 08:30N 32°34' W 117°44'818.1
2018-Sep-15 08:03N 32°26' W 117°40'117.5
2018-Sep-15 08:00N 32°26' W 117°40'917.5
2018-Sep-15 07:30N 32°17' W 117°37'817.7
2018-Sep-15 07:03N 32°10' W 117°33'118.0
2018-Sep-15 07:00N 32°09' W 117°33'9569.4
2018-Sep-15 07:00N 32°00' W 117°30'1 1.7 290 / 181009.010.8 19.716.821.0
2018-Sep-15 06:30N 32°01' W 117°29'817.9
2018-Sep-15 06:03N 31°53' W 117°26'117.7
2018-Sep-15 06:00N 31°52' W 117°25'4303.2
2018-Sep-15 06:00N 31°48' W 117°24'4 9.1 300 / 181009.010.8 20.016.721.0
2018-Sep-15 05:31N 31°44' W 117°22'817.7
2018-Sep-15 05:03N 31°36' W 117°19'117.4
2018-Sep-15 05:00N 31°35' W 117°19'6367.2
2018-Sep-15 05:00N 31°30' W 117°18'4 8.3 310 / 191009.010.8 20.016.721.0
2018-Sep-15 04:30N 31°27' W 117°15'919.1
2018-Sep-15 04:03N 31°19' W 117°12'119.1
2018-Sep-15 04:00N 31°18' W 117°11'140.3
2018-Sep-15 04:00N 31°18' W 117°12'1020.2 310 / 221009.010.8 20.016.721.0
2018-Sep-15 03:30N 31°09' W 117°08'919.0
2018-Sep-15 03:03N 31°01' W 117°05'118.9
2018-Sep-15 03:00N 30°60' W 117°04'121061.8
2018-Sep-15 03:00N 30°48' W 117°00'3 6.1 300 / 251007.010.8 21.017.825.0
2018-Sep-15 02:30N 30°51' W 117°01'919.3
2018-Sep-15 02:03N 30°43' W 116°57'119.6
2018-Sep-15 02:00N 30°42' W 116°57'1019.9
2018-Sep-15 01:30N 30°32' W 116°53'920.1
2018-Sep-15 01:03N 30°24' W 116°49'120.2
2018-Sep-15 01:00N 30°23' W 116°49'1019.9
2018-Sep-15 00:29N 30°13' W 116°45'1120.0
2018-Sep-14 23:58N 30°03' W 116°41'920.0
2018-Sep-14 23:30N 29°55' W 116°38'919.9
2018-Sep-14 23:03N 29°46' W 116°34'119.6
2018-Sep-14 23:00N 29°45' W 116°34'1019.7
2018-Sep-14 22:30N 29°36' W 116°30'919.6
2018-Sep-14 22:03N 29°28' W 116°27'119.2
2018-Sep-14 22:00N 29°27' W 116°26'4323.8
2018-Sep-14 22:00N 29°30' W 116°24'1325.9 310 / 201008.010.8 21.017.822.0
2018-Sep-14 21:30N 29°18' W 116°22'919.9
2018-Sep-14 21:03N 29°09' W 116°19'219.8
2018-Sep-14 20:59N 29°08' W 116°18'1019.4
2018-Sep-14 20:28N 28°58' W 116°15'819.3
2018-Sep-14 20:03N 28°51' W 116°12'119.4
2018-Sep-14 20:00N 28°50' W 116°11'1019.5
2018-Sep-14 19:29N 28°40' W 116°07'919.7
2018-Sep-14 19:03N 28°32' W 116°04'120.0
2018-Sep-14 19:00N 28°31' W 116°04'81186.2
2018-Sep-14 19:00N 28°24' W 116°00'2 4.2 330 / 201010.010.8 21.318.820.0
2018-Sep-14 18:30N 28°22' W 116°00'920.0
2018-Sep-14 18:03N 28°13' W 115°57'120.2
2018-Sep-14 18:00N 28°13' W 115°56'2126.6
2018-Sep-14 18:00N 28°12' W 115°54'917.7 330 / 201010.010.8 21.118.620.0
2018-Sep-14 17:30N 28°04' W 115°51'919.6
2018-Sep-14 17:03N 27°57' W 115°45'119.4
2018-Sep-14 17:00N 27°56' W 115°44'3194.9
2018-Sep-14 17:00N 27°54' W 115°42'714.6 340 / 221009.010.8 21.018.620.0
2018-Sep-14 16:29N 27°48' W 115°37'920.1
2018-Sep-14 16:03N 27°41' W 115°31'120.6
2018-Sep-14 16:00N 27°40' W 115°31'2111.8
2018-Sep-14 16:00N 27°42' W 115°30'1123.3 340 / 211009.010.8 21.017.820.0
2018-Sep-14 15:30N 27°32' W 115°24'1019.8
2018-Sep-14 15:01N 27°25' W 115°17'119.9
2018-Sep-14 14:58N 27°24' W 115°16'1020.3
2018-Sep-14 14:29N 27°16' W 115°10'1020.5
2018-Sep-14 14:00N 27°08' W 115°03'1020.3
2018-Sep-14 13:30N 26°60' W 114°56'919.9
2018-Sep-14 13:03N 26°53' W 114°50'119.7
2018-Sep-14 13:00N 26°52' W 114°49'4534.1
2018-Sep-14 13:00N 26°48' W 114°48'   330 / 191008.010.8 21.019.425.0

Dump ship's entire track history